sensor_id;sensor_type;location;lat;lon;timestamp;P1;durP1;ratioP1;P2;durP2;ratioP2
14858;SDS011;7521;51.700;6.874;2022-09-21T00:00:44;3.72;;;1.60;;
14858;SDS011;7521;51.700;6.874;2022-09-21T00:03:53;4.40;;;1.70;;
14858;SDS011;7521;51.700;6.874;2022-09-21T00:06:58;6.57;;;2.50;;
14858;SDS011;7521;51.700;6.874;2022-09-21T00:10:04;5.28;;;2.30;;
14858;SDS011;7521;51.700;6.874;2022-09-21T00:13:09;3.87;;;1.90;;
14858;SDS011;7521;51.700;6.874;2022-09-21T00:16:15;6.43;;;1.80;;
14858;SDS011;7521;51.700;6.874;2022-09-21T00:19:20;3.67;;;2.23;;
14858;SDS011;7521;51.700;6.874;2022-09-21T00:22:26;4.00;;;2.00;;
14858;SDS011;7521;51.700;6.874;2022-09-21T00:25:32;10.80;;;3.07;;
14858;SDS011;7521;51.700;6.874;2022-09-21T00:28:38;6.05;;;1.95;;
14858;SDS011;7521;51.700;6.874;2022-09-21T00:31:44;7.00;;;2.20;;
14858;SDS011;7521;51.700;6.874;2022-09-21T00:34:50;5.00;;;1.98;;
14858;SDS011;7521;51.700;6.874;2022-09-21T00:37:58;6.63;;;2.00;;
14858;SDS011;7521;51.700;6.874;2022-09-21T00:41:04;5.60;;;2.10;;
14858;SDS011;7521;51.700;6.874;2022-09-21T00:47:19;5.80;;;2.00;;
14858;SDS011;7521;51.700;6.874;2022-09-21T00:50:25;4.70;;;2.10;;
14858;SDS011;7521;51.700;6.874;2022-09-21T00:53:31;6.57;;;2.30;;
14858;SDS011;7521;51.700;6.874;2022-09-21T00:56:36;5.43;;;2.77;;
14858;SDS011;7521;51.700;6.874;2022-09-21T00:59:42;6.30;;;2.20;;
14858;SDS011;7521;51.700;6.874;2022-09-21T01:02:48;5.33;;;2.83;;
14858;SDS011;7521;51.700;6.874;2022-09-21T01:05:54;3.07;;;2.50;;
14858;SDS011;7521;51.700;6.874;2022-09-21T01:09:00;4.97;;;2.77;;
14858;SDS011;7521;51.700;6.874;2022-09-21T01:22:21;3.60;;;1.97;;
14858;SDS011;7521;51.700;6.874;2022-09-21T01:31:48;5.30;;;2.50;;
14858;SDS011;7521;51.700;6.874;2022-09-21T01:34:58;6.27;;;2.80;;
14858;SDS011;7521;51.700;6.874;2022-09-21T01:38:06;2.47;;;1.53;;
14858;SDS011;7521;51.700;6.874;2022-09-21T01:41:12;3.17;;;2.07;;
14858;SDS011;7521;51.700;6.874;2022-09-21T01:44:19;5.77;;;1.70;;
14858;SDS011;7521;51.700;6.874;2022-09-21T01:47:26;4.80;;;1.90;;
14858;SDS011;7521;51.700;6.874;2022-09-21T01:50:36;4.10;;;2.23;;
14858;SDS011;7521;51.700;6.874;2022-09-21T01:53:43;10.60;;;2.40;;
14858;SDS011;7521;51.700;6.874;2022-09-21T01:56:53;9.23;;;2.23;;
14858;SDS011;7521;51.700;6.874;2022-09-21T01:59:59;11.50;;;2.57;;
14858;SDS011;7521;51.700;6.874;2022-09-21T02:06:09;10.77;;;2.85;;
14858;SDS011;7521;51.700;6.874;2022-09-21T02:09:15;8.53;;;2.00;;
14858;SDS011;7521;51.700;6.874;2022-09-21T02:12:21;4.97;;;2.00;;
14858;SDS011;7521;51.700;6.874;2022-09-21T02:15:31;7.73;;;2.63;;
14858;SDS011;7521;51.700;6.874;2022-09-21T02:22:07;5.03;;;2.50;;
14858;SDS011;7521;51.700;6.874;2022-09-21T02:25:21;7.67;;;2.67;;
14858;SDS011;7521;51.700;6.874;2022-09-21T02:31:49;4.17;;;2.50;;
14858;SDS011;7521;51.700;6.874;2022-09-21T02:35:02;5.27;;;3.30;;
14858;SDS011;7521;51.700;6.874;2022-09-21T02:44:50;6.80;;;3.27;;
14858;SDS011;7521;51.700;6.874;2022-09-21T02:47:58;5.60;;;3.63;;
14858;SDS011;7521;51.700;6.874;2022-09-21T02:51:06;4.40;;;3.27;;
14858;SDS011;7521;51.700;6.874;2022-09-21T02:54:14;4.93;;;4.37;;
14858;SDS011;7521;51.700;6.874;2022-09-21T02:57:21;6.63;;;4.40;;
14858;SDS011;7521;51.700;6.874;2022-09-21T03:00:26;5.50;;;4.00;;
14858;SDS011;7521;51.700;6.874;2022-09-21T03:03:31;6.95;;;4.10;;
14858;SDS011;7521;51.700;6.874;2022-09-21T03:06:37;6.10;;;4.03;;
14858;SDS011;7521;51.700;6.874;2022-09-21T03:09:42;5.90;;;4.03;;
14858;SDS011;7521;51.700;6.874;2022-09-21T03:12:48;5.50;;;3.87;;
14858;SDS011;7521;51.700;6.874;2022-09-21T03:16:00;4.85;;;3.72;;
14858;SDS011;7521;51.700;6.874;2022-09-21T03:19:05;8.33;;;5.03;;
14858;SDS011;7521;51.700;6.874;2022-09-21T03:22:11;8.97;;;6.50;;
14858;SDS011;7521;51.700;6.874;2022-09-21T03:25:16;12.60;;;6.10;;
14858;SDS011;7521;51.700;6.874;2022-09-21T03:28:21;5.87;;;5.17;;
14858;SDS011;7521;51.700;6.874;2022-09-21T03:31:26;6.40;;;4.40;;
14858;SDS011;7521;51.700;6.874;2022-09-21T03:34:32;4.15;;;3.72;;
14858;SDS011;7521;51.700;6.874;2022-09-21T03:37:38;8.37;;;3.60;;
14858;SDS011;7521;51.700;6.874;2022-09-21T03:40:44;5.20;;;3.25;;
14858;SDS011;7521;51.700;6.874;2022-09-21T03:43:50;6.07;;;3.50;;
14858;SDS011;7521;51.700;6.874;2022-09-21T03:46:55;8.63;;;3.85;;
14858;SDS011;7521;51.700;6.874;2022-09-21T03:50:02;6.00;;;3.53;;
14858;SDS011;7521;51.700;6.874;2022-09-21T03:53:07;8.47;;;4.00;;
14858;SDS011;7521;51.700;6.874;2022-09-21T03:56:14;7.60;;;3.80;;
14858;SDS011;7521;51.700;6.874;2022-09-21T03:59:19;4.43;;;3.80;;
14858;SDS011;7521;51.700;6.874;2022-09-21T04:02:24;6.10;;;4.18;;
14858;SDS011;7521;51.700;6.874;2022-09-21T04:05:29;5.60;;;4.03;;
14858;SDS011;7521;51.700;6.874;2022-09-21T04:08:34;5.97;;;4.53;;
14858;SDS011;7521;51.700;6.874;2022-09-21T04:11:40;11.20;;;4.63;;
14858;SDS011;7521;51.700;6.874;2022-09-21T04:14:45;5.60;;;4.33;;
14858;SDS011;7521;51.700;6.874;2022-09-21T04:17:51;5.38;;;3.83;;
14858;SDS011;7521;51.700;6.874;2022-09-21T04:20:57;5.13;;;3.90;;
14858;SDS011;7521;51.700;6.874;2022-09-21T04:24:02;6.47;;;3.97;;
14858;SDS011;7521;51.700;6.874;2022-09-21T04:27:08;5.80;;;3.50;;
14858;SDS011;7521;51.700;6.874;2022-09-21T04:30:14;4.33;;;3.83;;
14858;SDS011;7521;51.700;6.874;2022-09-21T04:33:20;5.67;;;4.63;;
14858;SDS011;7521;51.700;6.874;2022-09-21T04:36:26;8.07;;;4.03;;
14858;SDS011;7521;51.700;6.874;2022-09-21T04:39:32;4.87;;;3.57;;
14858;SDS011;7521;51.700;6.874;2022-09-21T04:42:37;5.90;;;3.90;;
14858;SDS011;7521;51.700;6.874;2022-09-21T04:45:42;8.80;;;3.77;;
14858;SDS011;7521;51.700;6.874;2022-09-21T04:48:47;5.28;;;3.95;;
14858;SDS011;7521;51.700;6.874;2022-09-21T04:51:53;6.97;;;4.40;;
14858;SDS011;7521;51.700;6.874;2022-09-21T04:54:58;6.43;;;4.30;;
14858;SDS011;7521;51.700;6.874;2022-09-21T04:58:04;6.10;;;3.95;;
14858;SDS011;7521;51.700;6.874;2022-09-21T05:01:09;4.18;;;3.72;;
14858;SDS011;7521;51.700;6.874;2022-09-21T05:04:15;6.07;;;4.53;;
14858;SDS011;7521;51.700;6.874;2022-09-21T05:07:20;7.07;;;4.50;;
14858;SDS011;7521;51.700;6.874;2022-09-21T05:10:25;5.00;;;4.47;;
14858;SDS011;7521;51.700;6.874;2022-09-21T05:13:30;8.60;;;4.73;;
14858;SDS011;7521;51.700;6.874;2022-09-21T05:16:35;7.38;;;4.25;;
14858;SDS011;7521;51.700;6.874;2022-09-21T05:19:41;8.17;;;4.23;;
14858;SDS011;7521;51.700;6.874;2022-09-21T05:22:46;7.55;;;3.88;;
14858;SDS011;7521;51.700;6.874;2022-09-21T05:25:51;6.68;;;3.72;;
14858;SDS011;7521;51.700;6.874;2022-09-21T05:28:57;9.00;;;3.70;;
14858;SDS011;7521;51.700;6.874;2022-09-21T05:32:07;8.47;;;4.03;;
14858;SDS011;7521;51.700;6.874;2022-09-21T05:38:34;7.37;;;4.60;;
14858;SDS011;7521;51.700;6.874;2022-09-21T05:41:39;8.43;;;5.20;;
14858;SDS011;7521;51.700;6.874;2022-09-21T05:44:44;8.97;;;4.67;;
14858;SDS011;7521;51.700;6.874;2022-09-21T05:50:56;7.22;;;4.68;;
14858;SDS011;7521;51.700;6.874;2022-09-21T05:54:15;8.27;;;4.90;;
14858;SDS011;7521;51.700;6.874;2022-09-21T06:01:10;8.83;;;3.50;;
14858;SDS011;7521;51.700;6.874;2022-09-21T06:04:18;8.47;;;4.77;;
14858;SDS011;7521;51.700;6.874;2022-09-21T06:07:23;11.23;;;5.13;;
14858;SDS011;7521;51.700;6.874;2022-09-21T06:10:31;12.03;;;5.77;;
14858;SDS011;7521;51.700;6.874;2022-09-21T06:13:37;7.43;;;5.27;;
14858;SDS011;7521;51.700;6.874;2022-09-21T06:16:42;9.40;;;5.40;;
14858;SDS011;7521;51.700;6.874;2022-09-21T06:19:47;9.98;;;5.95;;
14858;SDS011;7521;51.700;6.874;2022-09-21T06:22:58;7.63;;;6.30;;
14858;SDS011;7521;51.700;6.874;2022-09-21T06:26:03;10.53;;;5.83;;
14858;SDS011;7521;51.700;6.874;2022-09-21T06:29:08;21.03;;;6.90;;
14858;SDS011;7521;51.700;6.874;2022-09-21T06:32:14;19.27;;;5.87;;
14858;SDS011;7521;51.700;6.874;2022-09-21T06:35:19;16.58;;;5.68;;
14858;SDS011;7521;51.700;6.874;2022-09-21T06:38:24;13.93;;;6.07;;
14858;SDS011;7521;51.700;6.874;2022-09-21T06:41:30;19.93;;;6.33;;
14858;SDS011;7521;51.700;6.874;2022-09-21T06:44:35;16.42;;;6.57;;
14858;SDS011;7521;51.700;6.874;2022-09-21T06:47:45;18.70;;;7.32;;
14858;SDS011;7521;51.700;6.874;2022-09-21T06:50:50;21.37;;;6.33;;
14858;SDS011;7521;51.700;6.874;2022-09-21T06:53:56;18.35;;;6.82;;
14858;SDS011;7521;51.700;6.874;2022-09-21T06:57:01;11.70;;;6.90;;
14858;SDS011;7521;51.700;6.874;2022-09-21T07:00:08;12.87;;;6.80;;
14858;SDS011;7521;51.700;6.874;2022-09-21T07:03:14;15.13;;;6.73;;
14858;SDS011;7521;51.700;6.874;2022-09-21T07:06:19;10.32;;;7.30;;
14858;SDS011;7521;51.700;6.874;2022-09-21T07:09:24;14.50;;;7.82;;
14858;SDS011;7521;51.700;6.874;2022-09-21T07:12:30;14.63;;;7.37;;
14858;SDS011;7521;51.700;6.874;2022-09-21T07:15:38;14.07;;;8.20;;
14858;SDS011;7521;51.700;6.874;2022-09-21T07:18:43;10.23;;;8.38;;
14858;SDS011;7521;51.700;6.874;2022-09-21T07:21:48;13.68;;;7.72;;
14858;SDS011;7521;51.700;6.874;2022-09-21T07:24:53;13.88;;;8.50;;
14858;SDS011;7521;51.700;6.874;2022-09-21T07:27:59;10.27;;;8.25;;
14858;SDS011;7521;51.700;6.874;2022-09-21T07:31:08;12.40;;;8.60;;
14858;SDS011;7521;51.700;6.874;2022-09-21T07:34:13;16.53;;;8.83;;
14858;SDS011;7521;51.700;6.874;2022-09-21T07:37:18;11.23;;;8.90;;
14858;SDS011;7521;51.700;6.874;2022-09-21T07:40:24;11.75;;;9.20;;
14858;SDS011;7521;51.700;6.874;2022-09-21T07:43:29;11.43;;;8.63;;
14858;SDS011;7521;51.700;6.874;2022-09-21T07:46:34;9.00;;;8.10;;
14858;SDS011;7521;51.700;6.874;2022-09-21T07:49:41;12.43;;;9.07;;
14858;SDS011;7521;51.700;6.874;2022-09-21T07:52:46;11.57;;;8.87;;
14858;SDS011;7521;51.700;6.874;2022-09-21T07:55:51;9.98;;;8.05;;
14858;SDS011;7521;51.700;6.874;2022-09-21T07:58:56;12.75;;;9.02;;
14858;SDS011;7521;51.700;6.874;2022-09-21T08:02:11;20.37;;;8.93;;
14858;SDS011;7521;51.700;6.874;2022-09-21T08:05:16;14.80;;;9.13;;
14858;SDS011;7521;51.700;6.874;2022-09-21T08:08:21;15.48;;;9.70;;
14858;SDS011;7521;51.700;6.874;2022-09-21T08:11:27;12.35;;;8.82;;
14858;SDS011;7521;51.700;6.874;2022-09-21T08:14:34;17.30;;;9.10;;
14858;SDS011;7521;51.700;6.874;2022-09-21T08:17:39;11.17;;;8.10;;
14858;SDS011;7521;51.700;6.874;2022-09-21T08:20:51;14.25;;;8.88;;
14858;SDS011;7521;51.700;6.874;2022-09-21T08:23:56;18.70;;;9.53;;
14858;SDS011;7521;51.700;6.874;2022-09-21T08:27:01;17.20;;;8.30;;
14858;SDS011;7521;51.700;6.874;2022-09-21T08:30:07;10.97;;;7.10;;
14858;SDS011;7521;51.700;6.874;2022-09-21T08:33:12;12.87;;;7.70;;
14858;SDS011;7521;51.700;6.874;2022-09-21T08:36:18;11.87;;;7.27;;
14858;SDS011;7521;51.700;6.874;2022-09-21T08:39:23;12.07;;;7.07;;
14858;SDS011;7521;51.700;6.874;2022-09-21T08:42:37;12.23;;;7.33;;
14858;SDS011;7521;51.700;6.874;2022-09-21T08:45:43;13.57;;;7.80;;
14858;SDS011;7521;51.700;6.874;2022-09-21T08:48:51;12.13;;;7.53;;
14858;SDS011;7521;51.700;6.874;2022-09-21T08:51:59;10.03;;;7.30;;
14858;SDS011;7521;51.700;6.874;2022-09-21T08:55:08;11.57;;;7.13;;
14858;SDS011;7521;51.700;6.874;2022-09-21T08:58:20;11.80;;;7.03;;
14858;SDS011;7521;51.700;6.874;2022-09-21T09:04:49;12.97;;;6.77;;
14858;SDS011;7521;51.700;6.874;2022-09-21T09:17:23;9.95;;;5.30;;
14858;SDS011;7521;51.700;6.874;2022-09-21T09:20:38;7.13;;;4.67;;
14858;SDS011;7521;51.700;6.874;2022-09-21T09:23:48;11.30;;;5.10;;
14858;SDS011;7521;51.700;6.874;2022-09-21T09:26:57;9.20;;;4.30;;
14858;SDS011;7521;51.700;6.874;2022-09-21T09:30:07;7.67;;;4.13;;
14858;SDS011;7521;51.700;6.874;2022-09-21T09:33:20;13.73;;;4.40;;
14858;SDS011;7521;51.700;6.874;2022-09-21T09:36:28;7.37;;;3.83;;
14858;SDS011;7521;51.700;6.874;2022-09-21T09:39:34;10.27;;;3.43;;
14858;SDS011;7521;51.700;6.874;2022-09-21T09:42:54;9.93;;;3.30;;
14858;SDS011;7521;51.700;6.874;2022-09-21T09:46:06;5.13;;;2.40;;
14858;SDS011;7521;51.700;6.874;2022-09-21T09:52:39;5.67;;;2.40;;
14858;SDS011;7521;51.700;6.874;2022-09-21T09:55:49;5.00;;;2.50;;
14858;SDS011;7521;51.700;6.874;2022-09-21T09:59:00;9.73;;;2.47;;
14858;SDS011;7521;51.700;6.874;2022-09-21T10:02:18;6.37;;;2.00;;
14858;SDS011;7521;51.700;6.874;2022-09-21T10:08:42;6.70;;;2.20;;
14858;SDS011;7521;51.700;6.874;2022-09-21T10:11:47;7.20;;;2.07;;
14858;SDS011;7521;51.700;6.874;2022-09-21T10:14:56;4.20;;;2.10;;
14858;SDS011;7521;51.700;6.874;2022-09-21T10:18:18;5.97;;;2.30;;
14858;SDS011;7521;51.700;6.874;2022-09-21T10:21:34;8.00;;;1.80;;
14858;SDS011;7521;51.700;6.874;2022-09-21T10:24:39;4.17;;;1.00;;
14858;SDS011;7521;51.700;6.874;2022-09-21T10:27:50;5.87;;;1.07;;
14858;SDS011;7521;51.700;6.874;2022-09-21T10:31:15;6.07;;;1.40;;
14858;SDS011;7521;51.700;6.874;2022-09-21T10:34:21;4.53;;;0.90;;
14858;SDS011;7521;51.700;6.874;2022-09-21T10:37:28;3.50;;;1.13;;
14858;SDS011;7521;51.700;6.874;2022-09-21T10:40:36;2.77;;;0.90;;
14858;SDS011;7521;51.700;6.874;2022-09-21T10:43:41;2.63;;;0.93;;
14858;SDS011;7521;51.700;6.874;2022-09-21T10:46:48;2.27;;;1.00;;
14858;SDS011;7521;51.700;6.874;2022-09-21T10:49:55;6.43;;;1.00;;
14858;SDS011;7521;51.700;6.874;2022-09-21T10:53:09;5.47;;;0.90;;
14858;SDS011;7521;51.700;6.874;2022-09-21T10:56:15;1.80;;;0.90;;
14858;SDS011;7521;51.700;6.874;2022-09-21T10:59:24;3.43;;;1.07;;
14858;SDS011;7521;51.700;6.874;2022-09-21T11:05:36;5.80;;;1.27;;
14858;SDS011;7521;51.700;6.874;2022-09-21T11:08:48;4.47;;;1.70;;
14858;SDS011;7521;51.700;6.874;2022-09-21T11:15:10;2.63;;;1.20;;
14858;SDS011;7521;51.700;6.874;2022-09-21T11:18:23;3.60;;;0.90;;
14858;SDS011;7521;51.700;6.874;2022-09-21T11:24:57;3.70;;;1.20;;
14858;SDS011;7521;51.700;6.874;2022-09-21T11:40:53;2.97;;;1.10;;
14858;SDS011;7521;51.700;6.874;2022-09-21T11:50:40;4.53;;;1.03;;
14858;SDS011;7521;51.700;6.874;2022-09-21T11:53:56;4.90;;;1.10;;
14858;SDS011;7521;51.700;6.874;2022-09-21T12:00:21;3.13;;;1.00;;
14858;SDS011;7521;51.700;6.874;2022-09-21T12:03:35;2.67;;;1.00;;
14858;SDS011;7521;51.700;6.874;2022-09-21T12:06:58;3.13;;;0.80;;
14858;SDS011;7521;51.700;6.874;2022-09-21T12:13:21;2.63;;;0.80;;
14858;SDS011;7521;51.700;6.874;2022-09-21T12:16:37;3.73;;;1.50;;
14858;SDS011;7521;51.700;6.874;2022-09-21T12:19:45;4.10;;;1.27;;
14858;SDS011;7521;51.700;6.874;2022-09-21T12:22:55;3.53;;;0.97;;
14858;SDS011;7521;51.700;6.874;2022-09-21T12:26:01;2.87;;;1.10;;
14858;SDS011;7521;51.700;6.874;2022-09-21T12:29:12;2.57;;;0.73;;
14858;SDS011;7521;51.700;6.874;2022-09-21T12:38:33;3.70;;;0.80;;
14858;SDS011;7521;51.700;6.874;2022-09-21T12:44:59;1.67;;;0.70;;
14858;SDS011;7521;51.700;6.874;2022-09-21T12:51:27;5.60;;;0.90;;
14858;SDS011;7521;51.700;6.874;2022-09-21T13:00:53;3.67;;;1.10;;
14858;SDS011;7521;51.700;6.874;2022-09-21T13:04:43;1.90;;;0.90;;
14858;SDS011;7521;51.700;6.874;2022-09-21T13:07:37;3.37;;;1.03;;
14858;SDS011;7521;51.700;6.874;2022-09-21T13:11:00;2.87;;;1.07;;
14858;SDS011;7521;51.700;6.874;2022-09-21T13:14:09;2.73;;;1.07;;
14858;SDS011;7521;51.700;6.874;2022-09-21T13:17:22;3.63;;;1.40;;
14858;SDS011;7521;51.700;6.874;2022-09-21T13:20:35;2.87;;;0.90;;
14858;SDS011;7521;51.700;6.874;2022-09-21T13:23:41;2.37;;;0.83;;
14858;SDS011;7521;51.700;6.874;2022-09-21T13:26:51;3.23;;;0.70;;
14858;SDS011;7521;51.700;6.874;2022-09-21T13:33:36;4.83;;;2.53;;
14858;SDS011;7521;51.700;6.874;2022-09-21T13:36:42;3.93;;;1.53;;
14858;SDS011;7521;51.700;6.874;2022-09-21T13:43:18;4.93;;;1.00;;
14858;SDS011;7521;51.700;6.874;2022-09-21T13:49:42;3.57;;;1.17;;
14858;SDS011;7521;51.700;6.874;2022-09-21T13:52:49;2.30;;;0.80;;
14858;SDS011;7521;51.700;6.874;2022-09-21T13:55:59;3.70;;;1.37;;
14858;SDS011;7521;51.700;6.874;2022-09-21T13:59:05;3.67;;;1.30;;
14858;SDS011;7521;51.700;6.874;2022-09-21T14:02:31;1.73;;;0.80;;
14858;SDS011;7521;51.700;6.874;2022-09-21T14:05:42;4.93;;;1.10;;
14858;SDS011;7521;51.700;6.874;2022-09-21T14:08:56;4.13;;;1.20;;
14858;SDS011;7521;51.700;6.874;2022-09-21T14:12:04;6.57;;;2.27;;
14858;SDS011;7521;51.700;6.874;2022-09-21T14:15:33;1.40;;;0.70;;
14858;SDS011;7521;51.700;6.874;2022-09-21T14:18:36;4.20;;;1.07;;
14858;SDS011;7521;51.700;6.874;2022-09-21T14:25:22;3.17;;;1.00;;
14858;SDS011;7521;51.700;6.874;2022-09-21T14:31:36;2.87;;;1.00;;
14858;SDS011;7521;51.700;6.874;2022-09-21T14:34:43;2.77;;;0.80;;
14858;SDS011;7521;51.700;6.874;2022-09-21T14:37:57;8.83;;;1.33;;
14858;SDS011;7521;51.700;6.874;2022-09-21T14:41:04;12.77;;;4.00;;
14858;SDS011;7521;51.700;6.874;2022-09-21T14:44:21;4.37;;;1.23;;
14858;SDS011;7521;51.700;6.874;2022-09-21T15:00:43;2.77;;;1.03;;
14858;SDS011;7521;51.700;6.874;2022-09-21T15:07:15;1.87;;;0.97;;
14858;SDS011;7521;51.700;6.874;2022-09-21T15:14:19;6.73;;;1.40;;
14858;SDS011;7521;51.700;6.874;2022-09-21T15:17:25;2.63;;;0.83;;
14858;SDS011;7521;51.700;6.874;2022-09-21T15:20:31;4.87;;;1.30;;
14858;SDS011;7521;51.700;6.874;2022-09-21T15:23:36;3.05;;;1.13;;
14858;SDS011;7521;51.700;6.874;2022-09-21T15:26:44;2.63;;;0.83;;
14858;SDS011;7521;51.700;6.874;2022-09-21T15:29:51;2.47;;;1.17;;
14858;SDS011;7521;51.700;6.874;2022-09-21T15:32:58;4.10;;;1.27;;
14858;SDS011;7521;51.700;6.874;2022-09-21T15:36:04;3.23;;;1.10;;
14858;SDS011;7521;51.700;6.874;2022-09-21T15:42:28;2.27;;;1.00;;
14858;SDS011;7521;51.700;6.874;2022-09-21T15:45:46;4.63;;;1.00;;
14858;SDS011;7521;51.700;6.874;2022-09-21T15:48:53;2.63;;;0.80;;
14858;SDS011;7521;51.700;6.874;2022-09-21T15:51:59;6.65;;;1.23;;
14858;SDS011;7521;51.700;6.874;2022-09-21T15:55:12;3.07;;;1.33;;
14858;SDS011;7521;51.700;6.874;2022-09-21T15:58:37;3.47;;;0.93;;
14858;SDS011;7521;51.700;6.874;2022-09-21T16:01:45;4.23;;;1.23;;
14858;SDS011;7521;51.700;6.874;2022-09-21T16:04:51;1.67;;;0.70;;
14858;SDS011;7521;51.700;6.874;2022-09-21T16:08:09;3.37;;;1.00;;
14858;SDS011;7521;51.700;6.874;2022-09-21T16:14:30;4.00;;;0.90;;
14858;SDS011;7521;51.700;6.874;2022-09-21T16:17:56;1.57;;;0.97;;
14858;SDS011;7521;51.700;6.874;2022-09-21T16:21:12;4.10;;;1.07;;
14858;SDS011;7521;51.700;6.874;2022-09-21T16:24:20;2.03;;;1.00;;
14858;SDS011;7521;51.700;6.874;2022-09-21T16:27:28;2.30;;;0.90;;
14858;SDS011;7521;51.700;6.874;2022-09-21T16:30:37;2.37;;;1.20;;
14858;SDS011;7521;51.700;6.874;2022-09-21T16:36:53;1.57;;;0.80;;
14858;SDS011;7521;51.700;6.874;2022-09-21T16:39:58;1.10;;;0.60;;
14858;SDS011;7521;51.700;6.874;2022-09-21T16:43:06;3.83;;;1.00;;
14858;SDS011;7521;51.700;6.874;2022-09-21T16:46:12;2.23;;;0.87;;
14858;SDS011;7521;51.700;6.874;2022-09-21T16:49:17;2.27;;;1.07;;
14858;SDS011;7521;51.700;6.874;2022-09-21T16:52:25;2.17;;;0.80;;
14858;SDS011;7521;51.700;6.874;2022-09-21T16:55:32;3.00;;;1.13;;
14858;SDS011;7521;51.700;6.874;2022-09-21T16:58:38;3.67;;;1.00;;
14858;SDS011;7521;51.700;6.874;2022-09-21T17:01:46;3.00;;;1.13;;
14858;SDS011;7521;51.700;6.874;2022-09-21T17:04:56;2.57;;;1.20;;
14858;SDS011;7521;51.700;6.874;2022-09-21T17:08:01;4.07;;;1.52;;
14858;SDS011;7521;51.700;6.874;2022-09-21T17:11:07;2.13;;;1.05;;
14858;SDS011;7521;51.700;6.874;2022-09-21T17:14:12;5.15;;;1.88;;
14858;SDS011;7521;51.700;6.874;2022-09-21T17:17:20;3.30;;;1.57;;
14858;SDS011;7521;51.700;6.874;2022-09-21T17:20:29;3.17;;;1.17;;
14858;SDS011;7521;51.700;6.874;2022-09-21T17:23:36;2.07;;;0.80;;
14858;SDS011;7521;51.700;6.874;2022-09-21T17:26:42;1.80;;;1.10;;
14858;SDS011;7521;51.700;6.874;2022-09-21T17:29:48;3.27;;;1.00;;
14858;SDS011;7521;51.700;6.874;2022-09-21T17:32:53;2.20;;;0.90;;
14858;SDS011;7521;51.700;6.874;2022-09-21T17:35:59;2.00;;;0.87;;
14858;SDS011;7521;51.700;6.874;2022-09-21T17:39:04;2.17;;;0.90;;
14858;SDS011;7521;51.700;6.874;2022-09-21T17:42:19;5.37;;;1.17;;
14858;SDS011;7521;51.700;6.874;2022-09-21T17:45:32;2.90;;;1.10;;
14858;SDS011;7521;51.700;6.874;2022-09-21T17:48:42;6.07;;;1.30;;
14858;SDS011;7521;51.700;6.874;2022-09-21T17:51:48;3.03;;;1.40;;
14858;SDS011;7521;51.700;6.874;2022-09-21T17:55:11;3.33;;;1.83;;
14858;SDS011;7521;51.700;6.874;2022-09-21T18:01:40;5.00;;;1.10;;
14858;SDS011;7521;51.700;6.874;2022-09-21T18:04:46;3.33;;;1.50;;
14858;SDS011;7521;51.700;6.874;2022-09-21T18:07:53;3.10;;;1.30;;
14858;SDS011;7521;51.700;6.874;2022-09-21T18:11:05;4.30;;;2.20;;
14858;SDS011;7521;51.700;6.874;2022-09-21T18:20:53;5.77;;;1.53;;
14858;SDS011;7521;51.700;6.874;2022-09-21T18:24:17;6.83;;;1.47;;
14858;SDS011;7521;51.700;6.874;2022-09-21T18:27:23;5.63;;;2.33;;
14858;SDS011;7521;51.700;6.874;2022-09-21T18:30:28;5.70;;;2.13;;
14858;SDS011;7521;51.700;6.874;2022-09-21T18:37:14;3.80;;;1.57;;
14858;SDS011;7521;51.700;6.874;2022-09-21T18:40:25;3.27;;;1.40;;
14858;SDS011;7521;51.700;6.874;2022-09-21T18:50:15;5.87;;;3.30;;
14858;SDS011;7521;51.700;6.874;2022-09-21T18:56:34;4.17;;;2.53;;
14858;SDS011;7521;51.700;6.874;2022-09-21T18:59:40;5.10;;;2.10;;
14858;SDS011;7521;51.700;6.874;2022-09-21T19:02:46;2.13;;;1.80;;
14858;SDS011;7521;51.700;6.874;2022-09-21T19:09:12;3.63;;;2.17;;
14858;SDS011;7521;51.700;6.874;2022-09-21T19:12:23;6.23;;;3.47;;
14858;SDS011;7521;51.700;6.874;2022-09-21T19:21:51;2.42;;;1.80;;
14858;SDS011;7521;51.700;6.874;2022-09-21T19:31:18;4.47;;;1.83;;
14858;SDS011;7521;51.700;6.874;2022-09-21T19:34:23;5.03;;;1.57;;
14858;SDS011;7521;51.700;6.874;2022-09-21T19:37:29;3.83;;;1.60;;
14858;SDS011;7521;51.700;6.874;2022-09-21T19:40:36;4.03;;;1.70;;
14858;SDS011;7521;51.700;6.874;2022-09-21T19:43:47;3.77;;;2.00;;
14858;SDS011;7521;51.700;6.874;2022-09-21T19:47:07;3.90;;;1.67;;
14858;SDS011;7521;51.700;6.874;2022-09-21T19:50:17;5.87;;;2.33;;
14858;SDS011;7521;51.700;6.874;2022-09-21T19:53:23;4.73;;;2.47;;
14858;SDS011;7521;51.700;6.874;2022-09-21T19:56:47;6.23;;;2.40;;
14858;SDS011;7521;51.700;6.874;2022-09-21T20:00:12;4.00;;;1.80;;
14858;SDS011;7521;51.700;6.874;2022-09-21T20:03:26;7.63;;;2.23;;
14858;SDS011;7521;51.700;6.874;2022-09-21T20:06:35;8.00;;;2.37;;
14858;SDS011;7521;51.700;6.874;2022-09-21T20:09:44;3.93;;;2.00;;
14858;SDS011;7521;51.700;6.874;2022-09-21T20:22:50;3.90;;;2.00;;
14858;SDS011;7521;51.700;6.874;2022-09-21T20:25:58;3.57;;;2.30;;
14858;SDS011;7521;51.700;6.874;2022-09-21T20:29:04;4.13;;;2.13;;
14858;SDS011;7521;51.700;6.874;2022-09-21T20:32:09;4.57;;;2.47;;
14858;SDS011;7521;51.700;6.874;2022-09-21T20:35:16;5.67;;;3.07;;
14858;SDS011;7521;51.700;6.874;2022-09-21T20:38:22;4.10;;;2.67;;
14858;SDS011;7521;51.700;6.874;2022-09-21T20:41:27;4.37;;;2.40;;
14858;SDS011;7521;51.700;6.874;2022-09-21T20:44:32;6.28;;;3.20;;
14858;SDS011;7521;51.700;6.874;2022-09-21T20:47:37;6.15;;;2.22;;
14858;SDS011;7521;51.700;6.874;2022-09-21T20:50:44;4.47;;;2.20;;
14858;SDS011;7521;51.700;6.874;2022-09-21T20:53:50;8.23;;;2.37;;
14858;SDS011;7521;51.700;6.874;2022-09-21T20:56:55;2.97;;;2.57;;
14858;SDS011;7521;51.700;6.874;2022-09-21T21:00:00;4.82;;;2.42;;
14858;SDS011;7521;51.700;6.874;2022-09-21T21:03:06;4.43;;;2.47;;
14858;SDS011;7521;51.700;6.874;2022-09-21T21:09:17;3.93;;;2.43;;
14858;SDS011;7521;51.700;6.874;2022-09-21T21:12:23;7.22;;;2.90;;
14858;SDS011;7521;51.700;6.874;2022-09-21T21:15:28;4.80;;;2.73;;
14858;SDS011;7521;51.700;6.874;2022-09-21T21:18:33;3.67;;;2.47;;
14858;SDS011;7521;51.700;6.874;2022-09-21T21:21:38;4.33;;;2.27;;
14858;SDS011;7521;51.700;6.874;2022-09-21T21:24:43;3.67;;;2.23;;
14858;SDS011;7521;51.700;6.874;2022-09-21T21:27:49;4.17;;;2.40;;
14858;SDS011;7521;51.700;6.874;2022-09-21T21:30:54;2.87;;;2.17;;
14858;SDS011;7521;51.700;6.874;2022-09-21T21:34:00;5.63;;;2.30;;
14858;SDS011;7521;51.700;6.874;2022-09-21T21:37:06;5.87;;;2.40;;
14858;SDS011;7521;51.700;6.874;2022-09-21T21:40:11;9.07;;;3.10;;
14858;SDS011;7521;51.700;6.874;2022-09-21T21:43:16;3.57;;;2.33;;
14858;SDS011;7521;51.700;6.874;2022-09-21T21:46:21;4.45;;;2.53;;
14858;SDS011;7521;51.700;6.874;2022-09-21T21:49:26;3.43;;;2.60;;
14858;SDS011;7521;51.700;6.874;2022-09-21T21:52:31;8.88;;;2.78;;
14858;SDS011;7521;51.700;6.874;2022-09-21T21:55:37;4.82;;;2.63;;
14858;SDS011;7521;51.700;6.874;2022-09-21T21:58:42;5.67;;;2.70;;
14858;SDS011;7521;51.700;6.874;2022-09-21T22:01:47;6.80;;;2.30;;
14858;SDS011;7521;51.700;6.874;2022-09-21T22:04:53;3.23;;;2.50;;
14858;SDS011;7521;51.700;6.874;2022-09-21T22:07:58;5.57;;;2.58;;
14858;SDS011;7521;51.700;6.874;2022-09-21T22:11:03;3.23;;;2.47;;
14858;SDS011;7521;51.700;6.874;2022-09-21T22:14:09;10.47;;;2.90;;
14858;SDS011;7521;51.700;6.874;2022-09-21T22:17:15;6.90;;;3.27;;
14858;SDS011;7521;51.700;6.874;2022-09-21T22:20:20;4.13;;;3.08;;
14858;SDS011;7521;51.700;6.874;2022-09-21T22:23:27;9.43;;;3.40;;
14858;SDS011;7521;51.700;6.874;2022-09-21T22:26:40;4.73;;;2.70;;
14858;SDS011;7521;51.700;6.874;2022-09-21T22:29:45;7.23;;;2.97;;
14858;SDS011;7521;51.700;6.874;2022-09-21T22:32:50;8.35;;;2.97;;
14858;SDS011;7521;51.700;6.874;2022-09-21T22:36:00;5.57;;;3.20;;
14858;SDS011;7521;51.700;6.874;2022-09-21T22:39:06;5.30;;;2.73;;
14858;SDS011;7521;51.700;6.874;2022-09-21T22:42:11;3.30;;;2.90;;
14858;SDS011;7521;51.700;6.874;2022-09-21T22:45:16;6.60;;;2.97;;
14858;SDS011;7521;51.700;6.874;2022-09-21T22:48:22;4.77;;;2.90;;